Terminal Aerodrome Forecast
Issued by NWS

Home | Current Version | Previous Version | Text Only | Print | Product List | Glossary On
Versions: 1 2 3 4 5 6 7 8 9 10 11 12 13 14
000
FTUS45 KFGZ 061135
TAFPGA
TAF
KPGA 061135Z 0612/0712 VRB05KT P6SM BKN100
     FM061900 34006KT P6SM SCT090 BKN140
     FM070300 VRB03KT P6SM BKN120=

USA.gov is the U.S. government's official web portal to all federal, state and local government web resources and services.